sensor_id;sensor_type;location;lat;lon;timestamp;P1;durP1;ratioP1;P2;durP2;ratioP2
44116;SDS011;29781;49.480;8.512;2022-07-09T00:02:24;7.45;;;3.00;;
44116;SDS011;29781;49.480;8.512;2022-07-09T00:04:50;3.55;;;2.63;;
44116;SDS011;29781;49.480;8.512;2022-07-09T00:07:15;6.15;;;3.00;;
44116;SDS011;29781;49.480;8.512;2022-07-09T00:09:41;4.40;;;2.90;;
44116;SDS011;29781;49.480;8.512;2022-07-09T00:12:07;6.45;;;3.20;;
44116;SDS011;29781;49.480;8.512;2022-07-09T00:14:33;8.57;;;2.55;;
44116;SDS011;29781;49.480;8.512;2022-07-09T00:17:00;4.55;;;2.97;;
44116;SDS011;29781;49.480;8.512;2022-07-09T00:19:26;6.30;;;2.63;;
44116;SDS011;29781;49.480;8.512;2022-07-09T00:21:51;5.72;;;2.90;;
44116;SDS011;29781;49.480;8.512;2022-07-09T00:24:17;5.30;;;2.85;;
44116;SDS011;29781;49.480;8.512;2022-07-09T00:26:43;4.35;;;2.80;;
44116;SDS011;29781;49.480;8.512;2022-07-09T00:29:08;4.15;;;3.08;;
44116;SDS011;29781;49.480;8.512;2022-07-09T00:31:34;7.65;;;2.75;;
44116;SDS011;29781;49.480;8.512;2022-07-09T00:34:00;5.32;;;2.95;;
44116;SDS011;29781;49.480;8.512;2022-07-09T00:36:25;4.40;;;2.63;;
44116;SDS011;29781;49.480;8.512;2022-07-09T00:38:51;4.60;;;2.63;;
44116;SDS011;29781;49.480;8.512;2022-07-09T00:41:17;4.13;;;2.58;;
44116;SDS011;29781;49.480;8.512;2022-07-09T00:43:46;6.68;;;2.70;;
44116;SDS011;29781;49.480;8.512;2022-07-09T00:46:13;9.77;;;4.05;;
44116;SDS011;29781;49.480;8.512;2022-07-09T00:48:39;4.85;;;2.85;;
44116;SDS011;29781;49.480;8.512;2022-07-09T00:51:05;4.30;;;2.97;;
44116;SDS011;29781;49.480;8.512;2022-07-09T00:53:31;2.42;;;2.20;;
44116;SDS011;29781;49.480;8.512;2022-07-09T00:55:57;6.97;;;2.92;;
44116;SDS011;29781;49.480;8.512;2022-07-09T00:58:23;7.03;;;2.75;;
44116;SDS011;29781;49.480;8.512;2022-07-09T01:00:49;4.40;;;2.58;;
44116;SDS011;29781;49.480;8.512;2022-07-09T01:03:15;6.78;;;2.85;;
44116;SDS011;29781;49.480;8.512;2022-07-09T01:05:41;7.63;;;2.85;;
44116;SDS011;29781;49.480;8.512;2022-07-09T01:08:07;7.72;;;3.13;;
44116;SDS011;29781;49.480;8.512;2022-07-09T01:10:33;6.50;;;2.90;;
44116;SDS011;29781;49.480;8.512;2022-07-09T01:13:00;5.47;;;3.03;;
44116;SDS011;29781;49.480;8.512;2022-07-09T01:15:27;6.40;;;3.38;;
44116;SDS011;29781;49.480;8.512;2022-07-09T01:17:53;8.45;;;2.80;;
44116;SDS011;29781;49.480;8.512;2022-07-09T01:20:27;5.60;;;2.70;;
44116;SDS011;29781;49.480;8.512;2022-07-09T01:22:57;6.35;;;2.83;;
44116;SDS011;29781;49.480;8.512;2022-07-09T01:25:31;7.47;;;3.92;;
44116;SDS011;29781;49.480;8.512;2022-07-09T01:28:00;7.93;;;3.20;;
44116;SDS011;29781;49.480;8.512;2022-07-09T01:30:27;7.60;;;3.00;;
44116;SDS011;29781;49.480;8.512;2022-07-09T01:32:53;4.78;;;2.80;;
44116;SDS011;29781;49.480;8.512;2022-07-09T01:35:19;6.43;;;2.60;;
44116;SDS011;29781;49.480;8.512;2022-07-09T01:37:46;8.43;;;2.90;;
44116;SDS011;29781;49.480;8.512;2022-07-09T01:40:12;3.92;;;2.70;;
44116;SDS011;29781;49.480;8.512;2022-07-09T01:42:38;10.15;;;3.72;;
44116;SDS011;29781;49.480;8.512;2022-07-09T01:45:04;7.15;;;3.00;;
44116;SDS011;29781;49.480;8.512;2022-07-09T01:47:31;8.75;;;3.22;;
44116;SDS011;29781;49.480;8.512;2022-07-09T01:49:56;3.58;;;2.70;;
44116;SDS011;29781;49.480;8.512;2022-07-09T01:52:22;5.47;;;2.85;;
44116;SDS011;29781;49.480;8.512;2022-07-09T01:54:47;5.43;;;2.95;;
44116;SDS011;29781;49.480;8.512;2022-07-09T01:57:13;9.75;;;3.25;;
44116;SDS011;29781;49.480;8.512;2022-07-09T01:59:39;4.88;;;3.15;;
44116;SDS011;29781;49.480;8.512;2022-07-09T02:02:04;5.65;;;2.70;;
44116;SDS011;29781;49.480;8.512;2022-07-09T02:04:30;6.07;;;2.50;;
44116;SDS011;29781;49.480;8.512;2022-07-09T02:06:56;3.80;;;2.40;;
44116;SDS011;29781;49.480;8.512;2022-07-09T02:09:22;4.93;;;2.67;;
44116;SDS011;29781;49.480;8.512;2022-07-09T02:11:48;5.40;;;3.50;;
44116;SDS011;29781;49.480;8.512;2022-07-09T02:14:14;3.08;;;2.30;;
44116;SDS011;29781;49.480;8.512;2022-07-09T02:16:40;5.40;;;2.60;;
44116;SDS011;29781;49.480;8.512;2022-07-09T02:19:06;4.18;;;2.65;;
44116;SDS011;29781;49.480;8.512;2022-07-09T02:21:32;6.07;;;2.55;;
44116;SDS011;29781;49.480;8.512;2022-07-09T02:23:58;4.68;;;2.47;;
44116;SDS011;29781;49.480;8.512;2022-07-09T02:26:24;3.33;;;2.50;;
44116;SDS011;29781;49.480;8.512;2022-07-09T02:28:57;3.70;;;2.33;;
44116;SDS011;29781;49.480;8.512;2022-07-09T02:31:23;4.40;;;2.45;;
44116;SDS011;29781;49.480;8.512;2022-07-09T02:33:49;3.88;;;3.10;;
44116;SDS011;29781;49.480;8.512;2022-07-09T02:36:15;3.50;;;2.45;;
44116;SDS011;29781;49.480;8.512;2022-07-09T02:38:41;4.88;;;2.63;;
44116;SDS011;29781;49.480;8.512;2022-07-09T02:41:06;4.35;;;3.05;;
44116;SDS011;29781;49.480;8.512;2022-07-09T02:43:32;5.43;;;3.13;;
44116;SDS011;29781;49.480;8.512;2022-07-09T02:45:57;3.20;;;2.88;;
44116;SDS011;29781;49.480;8.512;2022-07-09T02:48:23;4.18;;;2.88;;
44116;SDS011;29781;49.480;8.512;2022-07-09T02:50:52;4.45;;;2.95;;
44116;SDS011;29781;49.480;8.512;2022-07-09T02:53:18;4.80;;;3.00;;
44116;SDS011;29781;49.480;8.512;2022-07-09T02:55:44;6.28;;;3.15;;
44116;SDS011;29781;49.480;8.512;2022-07-09T02:58:10;4.63;;;2.67;;
44116;SDS011;29781;49.480;8.512;2022-07-09T03:00:37;3.60;;;2.80;;
44116;SDS011;29781;49.480;8.512;2022-07-09T03:03:06;3.10;;;2.80;;
44116;SDS011;29781;49.480;8.512;2022-07-09T03:05:32;5.55;;;3.05;;
44116;SDS011;29781;49.480;8.512;2022-07-09T03:07:58;4.35;;;2.80;;
44116;SDS011;29781;49.480;8.512;2022-07-09T03:10:24;7.47;;;3.28;;
44116;SDS011;29781;49.480;8.512;2022-07-09T03:12:50;3.58;;;2.88;;
44116;SDS011;29781;49.480;8.512;2022-07-09T03:15:15;4.53;;;3.00;;
44116;SDS011;29781;49.480;8.512;2022-07-09T03:17:44;4.15;;;3.15;;
44116;SDS011;29781;49.480;8.512;2022-07-09T03:20:11;7.25;;;3.90;;
44116;SDS011;29781;49.480;8.512;2022-07-09T03:22:37;7.72;;;4.13;;
44116;SDS011;29781;49.480;8.512;2022-07-09T03:25:04;3.88;;;3.47;;
44116;SDS011;29781;49.480;8.512;2022-07-09T03:27:30;4.05;;;3.65;;
44116;SDS011;29781;49.480;8.512;2022-07-09T03:29:56;4.47;;;3.45;;
44116;SDS011;29781;49.480;8.512;2022-07-09T03:32:22;6.82;;;3.95;;
44116;SDS011;29781;49.480;8.512;2022-07-09T03:34:48;7.68;;;3.65;;
44116;SDS011;29781;49.480;8.512;2022-07-09T03:37:14;5.88;;;3.80;;
44116;SDS011;29781;49.480;8.512;2022-07-09T03:39:40;6.75;;;3.38;;
44116;SDS011;29781;49.480;8.512;2022-07-09T03:42:05;6.25;;;3.30;;
44116;SDS011;29781;49.480;8.512;2022-07-09T03:44:34;10.85;;;3.30;;
44116;SDS011;29781;49.480;8.512;2022-07-09T03:46:59;5.38;;;3.35;;
44116;SDS011;29781;49.480;8.512;2022-07-09T03:49:25;6.22;;;3.50;;
44116;SDS011;29781;49.480;8.512;2022-07-09T03:51:51;5.50;;;2.95;;
44116;SDS011;29781;49.480;8.512;2022-07-09T03:54:17;5.78;;;3.47;;
44116;SDS011;29781;49.480;8.512;2022-07-09T03:56:43;3.47;;;2.83;;
44116;SDS011;29781;49.480;8.512;2022-07-09T03:59:09;8.55;;;3.42;;
44116;SDS011;29781;49.480;8.512;2022-07-09T04:01:34;6.65;;;3.88;;
44116;SDS011;29781;49.480;8.512;2022-07-09T04:04:00;4.68;;;3.33;;
44116;SDS011;29781;49.480;8.512;2022-07-09T04:06:26;4.88;;;3.30;;
44116;SDS011;29781;49.480;8.512;2022-07-09T04:08:52;6.25;;;3.22;;
44116;SDS011;29781;49.480;8.512;2022-07-09T04:11:17;8.15;;;3.15;;
44116;SDS011;29781;49.480;8.512;2022-07-09T04:13:43;4.88;;;3.15;;
44116;SDS011;29781;49.480;8.512;2022-07-09T04:16:09;7.60;;;3.25;;
44116;SDS011;29781;49.480;8.512;2022-07-09T04:18:35;6.03;;;3.30;;
44116;SDS011;29781;49.480;8.512;2022-07-09T04:21:01;5.90;;;3.22;;
44116;SDS011;29781;49.480;8.512;2022-07-09T04:23:26;4.28;;;2.97;;
44116;SDS011;29781;49.480;8.512;2022-07-09T04:25:52;7.70;;;3.47;;
44116;SDS011;29781;49.480;8.512;2022-07-09T04:28:18;4.38;;;3.08;;
44116;SDS011;29781;49.480;8.512;2022-07-09T04:30:45;4.35;;;2.83;;
44116;SDS011;29781;49.480;8.512;2022-07-09T04:33:11;5.05;;;3.30;;
44116;SDS011;29781;49.480;8.512;2022-07-09T04:35:37;6.15;;;3.10;;
44116;SDS011;29781;49.480;8.512;2022-07-09T04:38:03;6.25;;;3.58;;
44116;SDS011;29781;49.480;8.512;2022-07-09T04:40:29;7.07;;;3.28;;
44116;SDS011;29781;49.480;8.512;2022-07-09T04:42:55;4.13;;;2.53;;
44116;SDS011;29781;49.480;8.512;2022-07-09T04:45:20;4.15;;;3.03;;
44116;SDS011;29781;49.480;8.512;2022-07-09T04:47:46;6.18;;;3.10;;
44116;SDS011;29781;49.480;8.512;2022-07-09T04:50:12;6.70;;;3.53;;
44116;SDS011;29781;49.480;8.512;2022-07-09T04:52:38;5.80;;;3.20;;
44116;SDS011;29781;49.480;8.512;2022-07-09T04:55:04;6.68;;;3.70;;
44116;SDS011;29781;49.480;8.512;2022-07-09T04:57:31;5.30;;;3.70;;
44116;SDS011;29781;49.480;8.512;2022-07-09T05:00:00;4.28;;;3.88;;
44116;SDS011;29781;49.480;8.512;2022-07-09T05:02:26;5.85;;;3.63;;
44116;SDS011;29781;49.480;8.512;2022-07-09T05:04:52;7.22;;;4.45;;
44116;SDS011;29781;49.480;8.512;2022-07-09T05:07:18;7.28;;;4.10;;
44116;SDS011;29781;49.480;8.512;2022-07-09T05:09:44;7.90;;;4.32;;
44116;SDS011;29781;49.480;8.512;2022-07-09T05:12:09;5.07;;;4.05;;
44116;SDS011;29781;49.480;8.512;2022-07-09T05:14:36;6.55;;;4.22;;
44116;SDS011;29781;49.480;8.512;2022-07-09T05:17:02;5.60;;;4.22;;
44116;SDS011;29781;49.480;8.512;2022-07-09T05:19:28;4.57;;;3.80;;
44116;SDS011;29781;49.480;8.512;2022-07-09T05:21:54;5.93;;;4.10;;
44116;SDS011;29781;49.480;8.512;2022-07-09T05:24:24;7.95;;;4.03;;
44116;SDS011;29781;49.480;8.512;2022-07-09T05:26:50;8.07;;;4.22;;
44116;SDS011;29781;49.480;8.512;2022-07-09T05:29:15;4.45;;;4.00;;
44116;SDS011;29781;49.480;8.512;2022-07-09T05:31:41;8.15;;;4.40;;
44116;SDS011;29781;49.480;8.512;2022-07-09T05:34:07;5.30;;;4.30;;
44116;SDS011;29781;49.480;8.512;2022-07-09T05:36:33;12.63;;;5.13;;
44116;SDS011;29781;49.480;8.512;2022-07-09T05:38:59;6.72;;;5.10;;
44116;SDS011;29781;49.480;8.512;2022-07-09T05:41:26;10.13;;;5.60;;
44116;SDS011;29781;49.480;8.512;2022-07-09T05:43:52;8.93;;;5.85;;
44116;SDS011;29781;49.480;8.512;2022-07-09T05:46:19;8.30;;;5.57;;
44116;SDS011;29781;49.480;8.512;2022-07-09T05:48:45;11.00;;;5.82;;
44116;SDS011;29781;49.480;8.512;2022-07-09T05:51:11;11.55;;;6.13;;
44116;SDS011;29781;49.480;8.512;2022-07-09T05:53:37;8.70;;;5.78;;
44116;SDS011;29781;49.480;8.512;2022-07-09T05:56:03;12.32;;;6.18;;
44116;SDS011;29781;49.480;8.512;2022-07-09T05:58:29;10.70;;;6.25;;
44116;SDS011;29781;49.480;8.512;2022-07-09T06:00:54;7.53;;;5.93;;
44116;SDS011;29781;49.480;8.512;2022-07-09T06:03:20;7.05;;;5.50;;
44116;SDS011;29781;49.480;8.512;2022-07-09T06:05:46;15.95;;;6.70;;
44116;SDS011;29781;49.480;8.512;2022-07-09T06:08:11;9.10;;;6.00;;
44116;SDS011;29781;49.480;8.512;2022-07-09T06:10:37;11.90;;;6.72;;
44116;SDS011;29781;49.480;8.512;2022-07-09T06:13:03;11.43;;;6.93;;
44116;SDS011;29781;49.480;8.512;2022-07-09T06:15:28;8.57;;;5.80;;
44116;SDS011;29781;49.480;8.512;2022-07-09T06:17:54;10.68;;;6.13;;
44116;SDS011;29781;49.480;8.512;2022-07-09T06:20:20;9.80;;;6.32;;
44116;SDS011;29781;49.480;8.512;2022-07-09T06:22:46;9.63;;;5.85;;
44116;SDS011;29781;49.480;8.512;2022-07-09T06:25:12;9.73;;;5.68;;
44116;SDS011;29781;49.480;8.512;2022-07-09T06:27:37;8.65;;;6.15;;
44116;SDS011;29781;49.480;8.512;2022-07-09T06:30:05;11.93;;;6.30;;
44116;SDS011;29781;49.480;8.512;2022-07-09T06:32:31;8.18;;;6.15;;
44116;SDS011;29781;49.480;8.512;2022-07-09T06:34:57;9.40;;;6.07;;
44116;SDS011;29781;49.480;8.512;2022-07-09T06:37:22;7.72;;;6.10;;
44116;SDS011;29781;49.480;8.512;2022-07-09T06:39:48;9.20;;;6.38;;
44116;SDS011;29781;49.480;8.512;2022-07-09T06:42:15;14.07;;;6.40;;
44116;SDS011;29781;49.480;8.512;2022-07-09T06:44:42;11.48;;;6.30;;
44116;SDS011;29781;49.480;8.512;2022-07-09T06:47:08;9.27;;;7.05;;
44116;SDS011;29781;49.480;8.512;2022-07-09T06:49:35;13.85;;;6.90;;
44116;SDS011;29781;49.480;8.512;2022-07-09T06:52:01;8.43;;;6.20;;
44116;SDS011;29781;49.480;8.512;2022-07-09T06:54:28;10.88;;;6.22;;
44116;SDS011;29781;49.480;8.512;2022-07-09T06:56:54;10.27;;;5.78;;
44116;SDS011;29781;49.480;8.512;2022-07-09T06:59:21;9.35;;;5.35;;
44116;SDS011;29781;49.480;8.512;2022-07-09T07:01:47;10.73;;;6.07;;
44116;SDS011;29781;49.480;8.512;2022-07-09T07:04:13;9.27;;;6.20;;
44116;SDS011;29781;49.480;8.512;2022-07-09T07:06:40;8.93;;;6.28;;
44116;SDS011;29781;49.480;8.512;2022-07-09T07:09:06;9.30;;;5.80;;
44116;SDS011;29781;49.480;8.512;2022-07-09T07:11:33;14.13;;;6.35;;
44116;SDS011;29781;49.480;8.512;2022-07-09T07:13:59;13.93;;;6.90;;
44116;SDS011;29781;49.480;8.512;2022-07-09T07:16:24;10.50;;;7.07;;
44116;SDS011;29781;49.480;8.512;2022-07-09T07:18:50;8.70;;;5.45;;
44116;SDS011;29781;49.480;8.512;2022-07-09T07:21:16;11.73;;;6.40;;
44116;SDS011;29781;49.480;8.512;2022-07-09T07:23:41;12.95;;;6.03;;
44116;SDS011;29781;49.480;8.512;2022-07-09T07:26:07;10.07;;;7.55;;
44116;SDS011;29781;49.480;8.512;2022-07-09T07:28:33;10.70;;;8.18;;
44116;SDS011;29781;49.480;8.512;2022-07-09T07:30:59;13.73;;;7.93;;
44116;SDS011;29781;49.480;8.512;2022-07-09T07:33:24;12.27;;;8.23;;
44116;SDS011;29781;49.480;8.512;2022-07-09T07:35:50;10.15;;;7.75;;
44116;SDS011;29781;49.480;8.512;2022-07-09T07:38:16;16.25;;;8.95;;
44116;SDS011;29781;49.480;8.512;2022-07-09T07:40:42;9.43;;;7.35;;
44116;SDS011;29781;49.480;8.512;2022-07-09T07:43:09;9.95;;;8.63;;
44116;SDS011;29781;49.480;8.512;2022-07-09T07:45:36;11.95;;;8.15;;
44116;SDS011;29781;49.480;8.512;2022-07-09T07:48:02;15.07;;;8.20;;
44116;SDS011;29781;49.480;8.512;2022-07-09T07:50:28;10.52;;;7.60;;
44116;SDS011;29781;49.480;8.512;2022-07-09T07:52:54;14.23;;;8.10;;
44116;SDS011;29781;49.480;8.512;2022-07-09T07:55:19;11.88;;;7.60;;
44116;SDS011;29781;49.480;8.512;2022-07-09T07:57:47;14.32;;;7.45;;
44116;SDS011;29781;49.480;8.512;2022-07-09T08:00:13;14.85;;;8.60;;
44116;SDS011;29781;49.480;8.512;2022-07-09T08:02:39;9.90;;;6.93;;
44116;SDS011;29781;49.480;8.512;2022-07-09T08:05:04;8.18;;;6.03;;
44116;SDS011;29781;49.480;8.512;2022-07-09T08:07:31;10.07;;;6.70;;
44116;SDS011;29781;49.480;8.512;2022-07-09T08:09:57;12.27;;;7.18;;
44116;SDS011;29781;49.480;8.512;2022-07-09T08:12:23;9.23;;;7.28;;
44116;SDS011;29781;49.480;8.512;2022-07-09T08:14:48;10.13;;;7.28;;
44116;SDS011;29781;49.480;8.512;2022-07-09T08:17:14;14.60;;;7.32;;
44116;SDS011;29781;49.480;8.512;2022-07-09T08:19:40;10.73;;;7.38;;
44116;SDS011;29781;49.480;8.512;2022-07-09T08:22:05;11.73;;;8.32;;
44116;SDS011;29781;49.480;8.512;2022-07-09T08:24:31;15.30;;;10.77;;
44116;SDS011;29781;49.480;8.512;2022-07-09T08:26:57;10.68;;;9.45;;
44116;SDS011;29781;49.480;8.512;2022-07-09T08:29:24;13.60;;;9.43;;
44116;SDS011;29781;49.480;8.512;2022-07-09T08:31:50;12.25;;;10.00;;
44116;SDS011;29781;49.480;8.512;2022-07-09T08:34:16;14.88;;;11.32;;
44116;SDS011;29781;49.480;8.512;2022-07-09T08:36:42;14.05;;;11.30;;
44116;SDS011;29781;49.480;8.512;2022-07-09T08:39:08;17.45;;;10.65;;
44116;SDS011;29781;49.480;8.512;2022-07-09T08:41:33;15.75;;;10.50;;
44116;SDS011;29781;49.480;8.512;2022-07-09T08:43:59;15.05;;;9.60;;
44116;SDS011;29781;49.480;8.512;2022-07-09T08:46:28;15.50;;;10.05;;
44116;SDS011;29781;49.480;8.512;2022-07-09T08:48:56;14.23;;;9.10;;
44116;SDS011;29781;49.480;8.512;2022-07-09T08:51:23;14.73;;;10.63;;
44116;SDS011;29781;49.480;8.512;2022-07-09T08:53:49;14.88;;;10.50;;
44116;SDS011;29781;49.480;8.512;2022-07-09T08:56:15;11.55;;;8.02;;
44116;SDS011;29781;49.480;8.512;2022-07-09T08:58:40;10.40;;;8.65;;
44116;SDS011;29781;49.480;8.512;2022-07-09T09:01:06;12.52;;;6.88;;
44116;SDS011;29781;49.480;8.512;2022-07-09T09:03:32;12.00;;;7.32;;
44116;SDS011;29781;49.480;8.512;2022-07-09T09:06:05;13.88;;;7.68;;
44116;SDS011;29781;49.480;8.512;2022-07-09T09:08:43;10.25;;;7.50;;
44116;SDS011;29781;49.480;8.512;2022-07-09T09:13:40;17.15;;;8.60;;
44116;SDS011;29781;49.480;8.512;2022-07-09T09:16:10;8.87;;;6.00;;
44116;SDS011;29781;49.480;8.512;2022-07-09T09:18:41;6.38;;;5.20;;
44116;SDS011;29781;49.480;8.512;2022-07-09T09:21:08;9.82;;;4.30;;
44116;SDS011;29781;49.480;8.512;2022-07-09T09:23:43;8.23;;;3.80;;
44116;SDS011;29781;49.480;8.512;2022-07-09T09:26:13;5.57;;;3.70;;
44116;SDS011;29781;49.480;8.512;2022-07-09T09:31:18;12.48;;;5.22;;
44116;SDS011;29781;49.480;8.512;2022-07-09T09:33:45;4.80;;;3.67;;
44116;SDS011;29781;49.480;8.512;2022-07-09T09:36:11;7.43;;;4.05;;
44116;SDS011;29781;49.480;8.512;2022-07-09T09:38:36;6.47;;;3.65;;
44116;SDS011;29781;49.480;8.512;2022-07-09T09:41:02;5.90;;;3.25;;
44116;SDS011;29781;49.480;8.512;2022-07-09T09:43:28;6.55;;;3.45;;
44116;SDS011;29781;49.480;8.512;2022-07-09T09:45:57;4.70;;;3.15;;
44116;SDS011;29781;49.480;8.512;2022-07-09T09:48:27;5.97;;;3.50;;
44116;SDS011;29781;49.480;8.512;2022-07-09T09:50:54;5.03;;;3.17;;
44116;SDS011;29781;49.480;8.512;2022-07-09T09:53:24;5.03;;;3.17;;
44116;SDS011;29781;49.480;8.512;2022-07-09T09:55:49;3.90;;;2.85;;
44116;SDS011;29781;49.480;8.512;2022-07-09T09:58:15;7.57;;;3.45;;
44116;SDS011;29781;49.480;8.512;2022-07-09T10:00:41;3.90;;;3.17;;
44116;SDS011;29781;49.480;8.512;2022-07-09T10:03:08;9.57;;;3.35;;
44116;SDS011;29781;49.480;8.512;2022-07-09T10:05:36;7.05;;;3.10;;
44116;SDS011;29781;49.480;8.512;2022-07-09T10:08:02;5.07;;;3.30;;
44116;SDS011;29781;49.480;8.512;2022-07-09T10:10:28;6.38;;;3.53;;
44116;SDS011;29781;49.480;8.512;2022-07-09T10:12:53;6.78;;;3.35;;
44116;SDS011;29781;49.480;8.512;2022-07-09T10:15:20;6.40;;;3.47;;
44116;SDS011;29781;49.480;8.512;2022-07-09T10:17:51;5.40;;;3.75;;
44116;SDS011;29781;49.480;8.512;2022-07-09T10:20:28;7.90;;;3.35;;
44116;SDS011;29781;49.480;8.512;2022-07-09T10:22:56;5.13;;;3.42;;
44116;SDS011;29781;49.480;8.512;2022-07-09T10:25:22;7.90;;;3.78;;
44116;SDS011;29781;49.480;8.512;2022-07-09T10:27:53;5.18;;;4.00;;
44116;SDS011;29781;49.480;8.512;2022-07-09T10:30:24;5.97;;;3.50;;
44116;SDS011;29781;49.480;8.512;2022-07-09T10:33:07;8.50;;;3.60;;
44116;SDS011;29781;49.480;8.512;2022-07-09T10:35:50;4.90;;;3.40;;
44116;SDS011;29781;49.480;8.512;2022-07-09T10:38:17;8.32;;;3.97;;
44116;SDS011;29781;49.480;8.512;2022-07-09T10:40:45;5.32;;;2.88;;
44116;SDS011;29781;49.480;8.512;2022-07-09T10:43:12;4.78;;;3.00;;
44116;SDS011;29781;49.480;8.512;2022-07-09T10:45:40;7.55;;;2.60;;
44116;SDS011;29781;49.480;8.512;2022-07-09T10:50:37;5.00;;;3.28;;
44116;SDS011;29781;49.480;8.512;2022-07-09T10:53:06;9.68;;;2.80;;
44116;SDS011;29781;49.480;8.512;2022-07-09T10:55:34;6.30;;;3.17;;
44116;SDS011;29781;49.480;8.512;2022-07-09T10:58:00;8.85;;;3.45;;
44116;SDS011;29781;49.480;8.512;2022-07-09T11:00:32;6.50;;;2.78;;
44116;SDS011;29781;49.480;8.512;2022-07-09T11:05:24;2.92;;;2.15;;
44116;SDS011;29781;49.480;8.512;2022-07-09T11:08:00;5.93;;;2.50;;
44116;SDS011;29781;49.480;8.512;2022-07-09T11:10:31;3.15;;;2.33;;
44116;SDS011;29781;49.480;8.512;2022-07-09T11:13:00;4.82;;;2.50;;
44116;SDS011;29781;49.480;8.512;2022-07-09T11:15:29;9.60;;;2.38;;
44116;SDS011;29781;49.480;8.512;2022-07-09T11:18:02;8.48;;;2.20;;
44116;SDS011;29781;49.480;8.512;2022-07-09T11:20:42;4.82;;;2.20;;
44116;SDS011;29781;49.480;8.512;2022-07-09T11:23:13;8.00;;;2.50;;
44116;SDS011;29781;49.480;8.512;2022-07-09T11:25:40;5.07;;;2.35;;
44116;SDS011;29781;49.480;8.512;2022-07-09T11:28:06;3.97;;;1.95;;
44116;SDS011;29781;49.480;8.512;2022-07-09T11:30:32;4.03;;;1.90;;
44116;SDS011;29781;49.480;8.512;2022-07-09T11:32:58;4.22;;;2.08;;
44116;SDS011;29781;49.480;8.512;2022-07-09T11:35:28;3.95;;;1.80;;
44116;SDS011;29781;49.480;8.512;2022-07-09T11:37:59;3.40;;;2.28;;
44116;SDS011;29781;49.480;8.512;2022-07-09T11:40:27;6.13;;;1.90;;
44116;SDS011;29781;49.480;8.512;2022-07-09T11:42:53;4.50;;;1.83;;
44116;SDS011;29781;49.480;8.512;2022-07-09T11:45:25;8.57;;;2.33;;
44116;SDS011;29781;49.480;8.512;2022-07-09T11:48:07;5.50;;;1.92;;
44116;SDS011;29781;49.480;8.512;2022-07-09T11:50:44;4.22;;;1.92;;
44116;SDS011;29781;49.480;8.512;2022-07-09T11:53:20;4.78;;;2.17;;
44116;SDS011;29781;49.480;8.512;2022-07-09T11:55:56;7.35;;;1.90;;
44116;SDS011;29781;49.480;8.512;2022-07-09T11:58:25;4.87;;;1.90;;
44116;SDS011;29781;49.480;8.512;2022-07-09T12:00:51;3.17;;;1.67;;
44116;SDS011;29781;49.480;8.512;2022-07-09T12:03:24;3.38;;;2.03;;
44116;SDS011;29781;49.480;8.512;2022-07-09T12:05:53;4.63;;;1.90;;
44116;SDS011;29781;49.480;8.512;2022-07-09T12:08:29;8.20;;;2.22;;
44116;SDS011;29781;49.480;8.512;2022-07-09T12:10:56;4.30;;;1.75;;
44116;SDS011;29781;49.480;8.512;2022-07-09T12:13:25;3.97;;;1.63;;
44116;SDS011;29781;49.480;8.512;2022-07-09T12:15:50;3.05;;;1.50;;
44116;SDS011;29781;49.480;8.512;2022-07-09T12:18:16;2.70;;;1.60;;
44116;SDS011;29781;49.480;8.512;2022-07-09T12:20:42;4.28;;;1.67;;
44116;SDS011;29781;49.480;8.512;2022-07-09T12:23:08;2.53;;;1.50;;
44116;SDS011;29781;49.480;8.512;2022-07-09T12:25:33;2.35;;;1.42;;
44116;SDS011;29781;49.480;8.512;2022-07-09T12:27:59;3.20;;;1.67;;
44116;SDS011;29781;49.480;8.512;2022-07-09T12:30:25;2.72;;;1.58;;
44116;SDS011;29781;49.480;8.512;2022-07-09T12:32:50;7.65;;;2.13;;
44116;SDS011;29781;49.480;8.512;2022-07-09T12:35:16;2.22;;;1.85;;
44116;SDS011;29781;49.480;8.512;2022-07-09T12:37:42;3.22;;;1.52;;
44116;SDS011;29781;49.480;8.512;2022-07-09T12:40:09;3.05;;;2.15;;
44116;SDS011;29781;49.480;8.512;2022-07-09T12:42:38;6.78;;;1.58;;
44116;SDS011;29781;49.480;8.512;2022-07-09T12:45:04;3.47;;;1.52;;
44116;SDS011;29781;49.480;8.512;2022-07-09T12:47:31;4.18;;;1.60;;
44116;SDS011;29781;49.480;8.512;2022-07-09T12:49:57;2.40;;;1.50;;
44116;SDS011;29781;49.480;8.512;2022-07-09T12:52:22;4.13;;;1.30;;
44116;SDS011;29781;49.480;8.512;2022-07-09T12:54:48;3.65;;;1.38;;
44116;SDS011;29781;49.480;8.512;2022-07-09T12:57:15;4.47;;;1.30;;
44116;SDS011;29781;49.480;8.512;2022-07-09T12:59:41;3.70;;;1.50;;
44116;SDS011;29781;49.480;8.512;2022-07-09T13:02:07;1.20;;;1.10;;
44116;SDS011;29781;49.480;8.512;2022-07-09T13:04:33;4.10;;;1.40;;
44116;SDS011;29781;49.480;8.512;2022-07-09T13:06:59;4.38;;;1.65;;
44116;SDS011;29781;49.480;8.512;2022-07-09T13:09:25;2.75;;;1.73;;
44116;SDS011;29781;49.480;8.512;2022-07-09T13:11:50;2.13;;;1.30;;
44116;SDS011;29781;49.480;8.512;2022-07-09T13:14:16;1.75;;;1.20;;
44116;SDS011;29781;49.480;8.512;2022-07-09T13:16:42;2.22;;;1.17;;
44116;SDS011;29781;49.480;8.512;2022-07-09T13:19:08;2.40;;;1.23;;
44116;SDS011;29781;49.480;8.512;2022-07-09T13:21:34;1.42;;;1.30;;
44116;SDS011;29781;49.480;8.512;2022-07-09T13:23:59;1.35;;;0.73;;
44116;SDS011;29781;49.480;8.512;2022-07-09T13:26:25;3.20;;;1.02;;
44116;SDS011;29781;49.480;8.512;2022-07-09T13:28:51;1.58;;;1.00;;
44116;SDS011;29781;49.480;8.512;2022-07-09T13:31:17;3.80;;;1.00;;
44116;SDS011;29781;49.480;8.512;2022-07-09T13:33:46;1.77;;;1.05;;
44116;SDS011;29781;49.480;8.512;2022-07-09T13:36:11;1.63;;;1.08;;
44116;SDS011;29781;49.480;8.512;2022-07-09T13:38:37;1.15;;;1.02;;
44116;SDS011;29781;49.480;8.512;2022-07-09T13:41:03;1.10;;;1.00;;
44116;SDS011;29781;49.480;8.512;2022-07-09T13:43:29;1.65;;;1.00;;
44116;SDS011;29781;49.480;8.512;2022-07-09T13:45:55;1.42;;;0.90;;
44116;SDS011;29781;49.480;8.512;2022-07-09T13:48:22;1.40;;;1.30;;
44116;SDS011;29781;49.480;8.512;2022-07-09T13:50:48;1.85;;;1.08;;
44116;SDS011;29781;49.480;8.512;2022-07-09T13:53:14;2.53;;;1.00;;
44116;SDS011;29781;49.480;8.512;2022-07-09T13:55:39;1.35;;;1.00;;
44116;SDS011;29781;49.480;8.512;2022-07-09T13:58:05;1.02;;;0.90;;
44116;SDS011;29781;49.480;8.512;2022-07-09T14:00:31;1.55;;;1.00;;
44116;SDS011;29781;49.480;8.512;2022-07-09T14:02:57;2.65;;;1.00;;
44116;SDS011;29781;49.480;8.512;2022-07-09T14:05:23;2.65;;;0.80;;
44116;SDS011;29781;49.480;8.512;2022-07-09T14:07:49;1.33;;;0.98;;
44116;SDS011;29781;49.480;8.512;2022-07-09T14:10:14;1.63;;;0.90;;
44116;SDS011;29781;49.480;8.512;2022-07-09T14:12:40;2.22;;;1.08;;
44116;SDS011;29781;49.480;8.512;2022-07-09T14:15:06;2.92;;;1.00;;
44116;SDS011;29781;49.480;8.512;2022-07-09T14:17:32;3.05;;;0.93;;
44116;SDS011;29781;49.480;8.512;2022-07-09T14:19:57;1.20;;;1.10;;
44116;SDS011;29781;49.480;8.512;2022-07-09T14:22:24;1.13;;;1.02;;
44116;SDS011;29781;49.480;8.512;2022-07-09T14:24:50;2.90;;;1.40;;
44116;SDS011;29781;49.480;8.512;2022-07-09T14:27:16;2.10;;;1.08;;
44116;SDS011;29781;49.480;8.512;2022-07-09T14:29:42;4.90;;;1.20;;
44116;SDS011;29781;49.480;8.512;2022-07-09T14:32:08;1.42;;;1.10;;
44116;SDS011;29781;49.480;8.512;2022-07-09T14:34:34;2.50;;;1.10;;
44116;SDS011;29781;49.480;8.512;2022-07-09T14:37:00;2.70;;;1.10;;
44116;SDS011;29781;49.480;8.512;2022-07-09T14:39:26;1.23;;;1.00;;
44116;SDS011;29781;49.480;8.512;2022-07-09T14:41:52;1.60;;;1.15;;
44116;SDS011;29781;49.480;8.512;2022-07-09T14:44:18;2.10;;;1.20;;
44116;SDS011;29781;49.480;8.512;2022-07-09T14:46:44;4.38;;;1.30;;
44116;SDS011;29781;49.480;8.512;2022-07-09T14:49:10;1.08;;;0.98;;
44116;SDS011;29781;49.480;8.512;2022-07-09T14:51:36;1.58;;;1.20;;
44116;SDS011;29781;49.480;8.512;2022-07-09T14:54:02;2.20;;;1.30;;